Time;durP1;ratioP1;P1;durP2;ratioP2;P2;SDS_P1;SDS_P2;PMS_P1;PMS_P2;Temp;Humidity;BMP_temperature;BMP_pressure;BME280_temperature;BME280_humidity;BME280_pressure;Samples;Min_cycle;Max_cycle;Signal;HPM_P1;HPM_P2
2023/07/05 00:01:24;;;;;;;12.57;11.98;;;;;;;;;;5032417;28;20057;-60
2023/07/05 00:03:50;;;;;;;12.32;11.73;;;;;;;;;;5046864;28;20094;-60
2023/07/05 00:06:15;;;;;;;12.23;11.63;;;;;;;;;;5050378;28;20056;-60
2023/07/05 00:08:41;;;;;;;12.20;11.60;;;;;;;;;;5047879;28;20044;-60
2023/07/05 00:11:07;;;;;;;12.05;11.45;;;;;;;;;;5048859;28;20103;-61
2023/07/05 00:13:32;;;;;;;11.65;11.10;;;;;;;;;;5047942;28;20029;-61
2023/07/05 00:15:59;;;;;;;11.60;11.10;;;;;;;;;;5047548;28;20024;-61
2023/07/05 00:18:24;;;;;;;12.00;11.40;;;;;;;;;;5047939;28;20056;-60
2023/07/05 00:20:49;;;;;;;12.00;11.40;;;;;;;;;;5048623;28;20033;-61
2023/07/05 00:23:15;;;;;;;11.93;11.37;;;;;;;;;;5046764;28;20103;-61
2023/07/05 00:25:40;;;;;;;11.65;11.15;;;;;;;;;;5044469;28;20265;-61
2023/07/05 00:28:05;;;;;;;12.07;11.47;;;;;;;;;;5049275;28;20559;-61
2023/07/05 00:30:30;;;;;;;11.67;11.17;;;;;;;;;;5046246;28;20688;-61
2023/07/05 00:32:55;;;;;;;11.85;11.30;;;;;;;;;;5048704;28;20332;-60
2023/07/05 00:35:21;;;;;;;12.23;11.63;;;;;;;;;;5047267;28;20104;-60
2023/07/05 00:37:46;;;;;;;12.00;11.40;;;;;;;;;;5048877;28;20021;-61
2023/07/05 00:40:11;;;;;;;12.32;11.73;;;;;;;;;;5029798;28;20269;-61
2023/07/05 00:42:38;;;;;;;12.30;11.70;;;;;;;;;;5049000;28;20079;-61
2023/07/05 00:45:09;;;;;;;12.40;11.80;;;;;;;;;;5045096;28;20030;-60
2023/07/05 00:47:34;;;;;;;11.60;11.10;;;;;;;;;;5049493;28;20028;-62
2023/07/05 00:50:03;;;;;;;11.40;10.90;;;;;;;;;;5046825;28;20021;-60
2023/07/05 00:52:29;;;;;;;12.23;11.63;;;;;;;;;;5049511;28;20536;-60
2023/07/05 00:54:55;;;;;;;12.35;11.75;;;;;;;;;;5046365;28;20108;-59
2023/07/05 00:57:22;;;;;;;12.20;11.60;;;;;;;;;;5051549;28;20092;-59
2023/07/05 00:59:57;;;;;;;11.57;11.07;;;;;;;;;;5034407;28;20414;-60
2023/07/05 01:02:22;;;;;;;11.75;11.25;;;;;;;;;;5051916;28;20055;-59
2023/07/05 01:04:48;;;;;;;12.02;11.43;;;;;;;;;;5052196;28;20464;-61
2023/07/05 01:07:13;;;;;;;11.73;11.23;;;;;;;;;;5053385;28;20468;-61
2023/07/05 01:09:38;;;;;;;12.20;11.60;;;;;;;;;;5051786;28;20104;-61
2023/07/05 01:12:04;;;;;;;12.15;11.55;;;;;;;;;;5053041;28;20032;-60
2023/07/05 01:14:44;;;;;;;12.07;11.48;;;;;;;;;;5051671;28;20037;-62
2023/07/05 01:17:16;;;;;;;11.50;11.00;;;;;;;;;;5051408;28;20560;-60
2023/07/05 01:19:41;;;;;;;12.32;11.73;;;;;;;;;;5052704;28;20062;-61
2023/07/05 01:22:23;;;;;;;11.53;11.03;;;;;;;;;;5047986;28;20053;-61
2023/07/05 01:24:52;;;;;;;11.90;11.35;;;;;;;;;;5052662;28;20810;-60
2023/07/05 01:27:24;;;;;;;12.30;11.70;;;;;;;;;;5050773;28;20025;-61
2023/07/05 01:30:08;;;;;;;11.85;11.30;;;;;;;;;;5052403;28;20036;-60
2023/07/05 01:32:33;;;;;;;11.57;11.07;;;;;;;;;;5050972;28;20017;-59
2023/07/05 01:35:05;;;;;;;11.83;11.30;;;;;;;;;;5052972;28;20028;-60
2023/07/05 01:37:43;;;;;;;12.07;11.48;;;;;;;;;;5048224;28;20806;-60
2023/07/05 01:40:14;;;;;;;11.88;11.32;;;;;;;;;;5048390;28;20036;-60
2023/07/05 01:42:40;;;;;;;12.15;11.55;;;;;;;;;;5034639;28;20071;-60
2023/07/05 01:45:06;;;;;;;11.95;11.38;;;;;;;;;;5051591;28;20102;-61
2023/07/05 01:47:50;;;;;;;12.23;11.63;;;;;;;;;;5048850;28;20071;-61
2023/07/05 01:50:21;;;;;;;11.88;11.32;;;;;;;;;;5034158;28;20048;-60
2023/07/05 01:52:51;;;;;;;11.93;11.32;;;;;;;;;;5049442;28;20082;-61
2023/07/05 01:55:39;;;;;;;13.18;12.48;;;;;;;;;;5046812;28;20020;-60
2023/07/05 01:58:08;;;;;;;12.23;11.63;;;;;;;;;;5050044;28;20032;-62
2023/07/05 02:00:33;;;;;;;11.70;11.20;;;;;;;;;;5049615;28;20021;-61
2023/07/05 02:03:04;;;;;;;11.45;10.95;;;;;;;;;;5050389;28;20040;-61
2023/07/05 02:05:30;;;;;;;12.27;11.68;;;;;;;;;;5048261;28;20070;-60
2023/07/05 02:07:57;;;;;;;11.82;11.30;;;;;;;;;;5051755;28;20036;-60
2023/07/05 02:10:23;;;;;;;12.55;11.95;;;;;;;;;;5049123;28;20021;-60
2023/07/05 02:12:50;;;;;;;12.00;11.40;;;;;;;;;;5052180;28;20407;-61
2023/07/05 02:15:16;;;;;;;11.68;11.18;;;;;;;;;;5051709;28;20029;-60
2023/07/05 02:17:41;;;;;;;12.18;11.57;;;;;;;;;;5048821;28;20017;-61
2023/07/05 02:20:06;;;;;;;11.10;10.60;;;;;;;;;;5052353;28;20380;-61
2023/07/05 02:22:32;;;;;;;12.10;11.50;;;;;;;;;;5049286;28;20051;-60
2023/07/05 02:24:57;;;;;;;11.82;11.30;;;;;;;;;;5052377;28;20017;-60
2023/07/05 02:27:22;;;;;;;12.30;11.70;;;;;;;;;;5051960;28;20078;-58
2023/07/05 02:29:48;;;;;;;11.23;10.73;;;;;;;;;;5050218;28;20024;-60
2023/07/05 02:32:13;;;;;;;11.95;11.35;;;;;;;;;;5051220;28;20099;-60
2023/07/05 02:34:42;;;;;;;12.35;11.75;;;;;;;;;;5052966;28;20536;-59
2023/07/05 02:37:08;;;;;;;12.35;11.75;;;;;;;;;;5052128;28;20024;-60
2023/07/05 02:39:33;;;;;;;12.60;12.00;;;;;;;;;;5047999;28;20033;-60
2023/07/05 02:41:59;;;;;;;11.70;11.20;;;;;;;;;;5050323;28;20027;-60
2023/07/05 02:44:24;;;;;;;11.80;11.27;;;;;;;;;;5048070;28;20087;-60
2023/07/05 02:46:49;;;;;;;11.60;11.10;;;;;;;;;;5051764;28;20021;-61
2023/07/05 02:49:15;;;;;;;12.63;12.02;;;;;;;;;;5051692;28;20041;-61
2023/07/05 02:51:41;;;;;;;11.68;11.18;;;;;;;;;;5047906;28;20047;-61
2023/07/05 02:54:07;;;;;;;11.30;10.80;;;;;;;;;;5049735;28;20033;-61
2023/07/05 02:56:32;;;;;;;13.02;12.35;;;;;;;;;;5049391;28;20025;-61
2023/07/05 02:58:57;;;;;;;11.55;11.05;;;;;;;;;;5049928;28;20484;-60
2023/07/05 03:01:22;;;;;;;12.07;11.48;;;;;;;;;;5048004;28;20051;-61
2023/07/05 03:03:48;;;;;;;11.67;11.17;;;;;;;;;;5047492;28;21210;-60
2023/07/05 03:06:13;;;;;;;12.20;11.60;;;;;;;;;;5046782;28;20337;-62
2023/07/05 03:08:38;;;;;;;12.18;11.57;;;;;;;;;;5048071;28;20024;-61
2023/07/05 03:11:04;;;;;;;12.00;11.40;;;;;;;;;;5048342;28;20026;-61
2023/07/05 03:13:31;;;;;;;11.60;11.10;;;;;;;;;;5050727;28;20032;-60
2023/07/05 03:15:57;;;;;;;11.20;10.70;;;;;;;;;;5050627;28;20071;-61
2023/07/05 03:18:23;;;;;;;11.93;11.32;;;;;;;;;;5049050;28;20044;-60
2023/07/05 03:20:48;;;;;;;12.18;11.57;;;;;;;;;;5050528;28;20029;-60
2023/07/05 03:23:14;;;;;;;12.15;11.55;;;;;;;;;;5050397;28;20074;-60
2023/07/05 03:25:40;;;;;;;11.93;11.32;;;;;;;;;;5048807;28;20025;-61
2023/07/05 03:28:05;;;;;;;12.80;12.20;;;;;;;;;;5050467;28;20037;-61
2023/07/05 03:30:31;;;;;;;11.63;11.13;;;;;;;;;;5050810;28;20024;-60
2023/07/05 03:32:57;;;;;;;11.30;10.80;;;;;;;;;;5046867;28;20068;-60
2023/07/05 03:35:22;;;;;;;14.65;13.85;;;;;;;;;;5048732;28;20583;-60
2023/07/05 03:37:47;;;;;;;12.15;11.55;;;;;;;;;;5048953;28;20103;-62
2023/07/05 03:40:13;;;;;;;12.77;12.17;;;;;;;;;;5043841;28;20033;-60
2023/07/05 03:42:38;;;;;;;11.48;10.98;;;;;;;;;;5048983;28;20384;-60
2023/07/05 03:45:03;;;;;;;11.83;11.27;;;;;;;;;;5041917;28;20021;-60
2023/07/05 03:47:29;;;;;;;13.48;12.77;;;;;;;;;;5044445;28;20371;-59
2023/07/05 03:49:54;;;;;;;11.90;11.30;;;;;;;;;;5041986;28;20028;-59
2023/07/05 03:52:19;;;;;;;12.07;11.48;;;;;;;;;;5048981;28;20017;-59
2023/07/05 03:54:44;;;;;;;12.90;12.30;;;;;;;;;;5046249;28;20033;-61
2023/07/05 03:57:10;;;;;;;12.27;11.68;;;;;;;;;;5044628;28;20280;-61
2023/07/05 03:59:35;;;;;;;12.13;11.52;;;;;;;;;;5046399;28;20013;-61
2023/07/05 04:02:00;;;;;;;11.60;11.10;;;;;;;;;;5045154;28;20053;-60
2023/07/05 04:04:27;;;;;;;12.25;11.65;;;;;;;;;;5043516;28;20041;-60
2023/07/05 04:06:52;;;;;;;11.45;10.95;;;;;;;;;;5045719;28;20069;-60
2023/07/05 04:09:18;;;;;;;12.32;11.73;;;;;;;;;;5046043;28;20079;-61
2023/07/05 04:11:43;;;;;;;12.38;11.77;;;;;;;;;;5046941;28;20022;-60
2023/07/05 04:14:09;;;;;;;11.70;11.20;;;;;;;;;;5047137;28;20430;-61
2023/07/05 04:16:34;;;;;;;11.85;11.35;;;;;;;;;;5029870;28;20102;-61
2023/07/05 04:18:59;;;;;;;12.00;11.50;;;;;;;;;;5048778;28;20538;-61
2023/07/05 04:21:26;;;;;;;12.02;11.52;;;;;;;;;;5047046;28;20281;-60
2023/07/05 04:23:51;;;;;;;11.95;11.45;;;;;;;;;;5047786;28;20021;-61
2023/07/05 04:26:18;;;;;;;11.77;11.27;;;;;;;;;;5045148;28;20032;-60
2023/07/05 04:28:43;;;;;;;12.13;11.63;;;;;;;;;;5048824;28;20124;-61
2023/07/05 04:31:10;;;;;;;12.10;11.60;;;;;;;;;;5048000;28;20109;-62
2023/07/05 04:33:35;;;;;;;11.65;11.15;;;;;;;;;;5047828;28;20783;-61
2023/07/05 04:36:02;;;;;;;11.68;11.18;;;;;;;;;;5048295;28;20029;-61
2023/07/05 04:38:27;;;;;;;11.98;11.48;;;;;;;;;;5044249;28;20024;-60
2023/07/05 04:40:53;;;;;;;11.60;11.10;;;;;;;;;;5046095;28;20081;-60
2023/07/05 04:43:19;;;;;;;12.05;11.55;;;;;;;;;;5044925;28;20021;-60
2023/07/05 04:45:51;;;;;;;11.50;11.00;;;;;;;;;;5047765;28;20028;-60
2023/07/05 04:48:16;;;;;;;12.05;11.55;;;;;;;;;;5048731;28;20070;-61
2023/07/05 04:50:42;;;;;;;11.77;11.27;;;;;;;;;;5044886;28;20451;-60
2023/07/05 04:53:07;;;;;;;11.85;11.35;;;;;;;;;;5043538;28;20021;-60
2023/07/05 04:55:32;;;;;;;12.43;11.87;;;;;;;;;;5043978;28;20080;-63
2023/07/05 04:57:58;;;;;;;11.50;11.00;;;;;;;;;;5045128;28;20047;-62
2023/07/05 05:00:24;;;;;;;11.83;11.33;;;;;;;;;;5046090;28;21143;-62
2023/07/05 05:02:49;;;;;;;12.25;11.75;;;;;;;;;;5045505;28;20308;-62
2023/07/05 05:05:15;;;;;;;11.60;11.10;;;;;;;;;;5045271;28;20025;-61
2023/07/05 05:07:40;;;;;;;11.27;10.77;;;;;;;;;;5045742;28;20030;-62
2023/07/05 05:10:06;;;;;;;10.98;10.48;;;;;;;;;;5046692;28;20021;-61
2023/07/05 05:12:31;;;;;;;11.18;10.68;;;;;;;;;;5043330;28;20620;-60
2023/07/05 05:14:56;;;;;;;11.55;11.05;;;;;;;;;;5044503;28;20552;-62
2023/07/05 05:17:22;;;;;;;11.40;10.90;;;;;;;;;;5046121;28;20119;-61
2023/07/05 05:19:47;;;;;;;11.13;10.63;;;;;;;;;;5048528;28;20061;-60
2023/07/05 05:22:12;;;;;;;11.53;11.03;;;;;;;;;;5047326;28;20087;-61
2023/07/05 05:24:39;;;;;;;11.48;10.98;;;;;;;;;;5042131;28;20288;-60
2023/07/05 05:27:05;;;;;;;12.02;11.52;;;;;;;;;;5042772;28;20109;-61
2023/07/05 05:29:30;;;;;;;12.10;11.60;;;;;;;;;;5046809;28;20026;-61
2023/07/05 05:31:56;;;;;;;11.43;10.93;;;;;;;;;;5046389;28;20112;-61
2023/07/05 05:34:21;;;;;;;12.60;12.00;;;;;;;;;;5046177;28;20100;-61
2023/07/05 05:36:47;;;;;;;11.68;11.18;;;;;;;;;;5046279;28;20070;-61
2023/07/05 05:39:12;;;;;;;11.82;11.32;;;;;;;;;;5039996;28;20109;-61
2023/07/05 05:41:37;;;;;;;11.53;11.03;;;;;;;;;;5047189;28;20021;-59
2023/07/05 05:44:02;;;;;;;11.70;11.20;;;;;;;;;;5050318;28;20456;-61
2023/07/05 05:46:29;;;;;;;12.18;11.68;;;;;;;;;;5046684;28;20258;-60
2023/07/05 05:48:54;;;;;;;11.93;11.43;;;;;;;;;;5046916;28;20025;-60
2023/07/05 05:51:20;;;;;;;12.10;11.60;;;;;;;;;;5047229;28;20101;-61
2023/07/05 05:53:45;;;;;;;11.88;11.38;;;;;;;;;;5050333;28;20028;-61
2023/07/05 05:56:10;;;;;;;11.40;10.90;;;;;;;;;;5046098;28;20055;-61
2023/07/05 05:58:35;;;;;;;12.17;11.67;;;;;;;;;;5048918;28;20021;-61
2023/07/05 06:01:01;;;;;;;11.80;11.30;;;;;;;;;;5046625;28;20285;-61
2023/07/05 06:03:27;;;;;;;11.90;11.40;;;;;;;;;;5047303;28;20106;-61
2023/07/05 06:05:54;;;;;;;11.60;11.10;;;;;;;;;;5051637;28;20476;-60
2023/07/05 06:08:19;;;;;;;11.68;11.18;;;;;;;;;;5048474;28;20107;-61
2023/07/05 06:10:46;;;;;;;11.53;11.03;;;;;;;;;;5050729;28;20100;-61
2023/07/05 06:13:11;;;;;;;11.90;11.40;;;;;;;;;;5049609;28;20020;-61
2023/07/05 06:15:37;;;;;;;11.80;11.30;;;;;;;;;;5046817;28;20419;-61
2023/07/05 06:18:02;;;;;;;11.77;11.27;;;;;;;;;;5048003;28;20753;-61
2023/07/05 06:20:29;;;;;;;11.63;11.13;;;;;;;;;;5045176;28;20071;-60
2023/07/05 06:22:54;;;;;;;11.63;11.13;;;;;;;;;;5047372;28;20577;-61
2023/07/05 06:25:21;;;;;;;11.73;11.23;;;;;;;;;;5045483;28;20025;-60
2023/07/05 06:27:46;;;;;;;11.57;11.07;;;;;;;;;;5044644;28;20053;-60
2023/07/05 06:30:11;;;;;;;11.53;11.03;;;;;;;;;;5046738;28;20057;-62
2023/07/05 06:32:37;;;;;;;11.50;11.00;;;;;;;;;;5042625;28;20021;-62
2023/07/05 06:35:03;;;;;;;11.43;10.93;;;;;;;;;;5046529;28;20049;-61
2023/07/05 06:37:28;;;;;;;11.60;11.10;;;;;;;;;;5043619;28;20273;-61
2023/07/05 06:39:53;;;;;;;11.50;11.00;;;;;;;;;;5044314;28;20029;-61
2023/07/05 06:42:18;;;;;;;11.50;11.00;;;;;;;;;;5043289;28;20017;-62
2023/07/05 06:44:44;;;;;;;11.77;11.27;;;;;;;;;;5045307;28;20021;-62
2023/07/05 06:47:09;;;;;;;11.50;11.00;;;;;;;;;;5045377;28;20067;-60
2023/07/05 06:49:34;;;;;;;11.83;11.33;;;;;;;;;;5045231;28;20112;-61
2023/07/05 06:52:00;;;;;;;11.65;11.15;;;;;;;;;;5040673;28;20481;-61
2023/07/05 06:54:25;;;;;;;11.60;11.10;;;;;;;;;;5046494;28;20040;-62
2023/07/05 06:56:50;;;;;;;11.50;11.00;;;;;;;;;;5045228;28;20067;-61
2023/07/05 06:59:16;;;;;;;11.83;11.33;;;;;;;;;;5044699;28;20098;-62
2023/07/05 07:01:42;;;;;;;11.47;10.97;;;;;;;;;;5046889;28;20274;-61
2023/07/05 07:04:07;;;;;;;11.82;11.32;;;;;;;;;;5043139;28;20033;-61
2023/07/05 07:06:33;;;;;;;11.33;10.83;;;;;;;;;;5046078;28;20023;-62
2023/07/05 07:08:59;;;;;;;11.32;10.82;;;;;;;;;;5043706;28;20094;-61
2023/07/05 07:11:24;;;;;;;11.38;10.88;;;;;;;;;;5045612;28;20116;-63
2023/07/05 07:13:49;;;;;;;11.50;11.00;;;;;;;;;;5035989;28;20028;-62
2023/07/05 07:16:15;;;;;;;11.88;11.38;;;;;;;;;;5041338;28;20488;-64
2023/07/05 07:18:43;;;;;;;11.80;11.30;;;;;;;;;;5044751;28;20021;-61
2023/07/05 07:21:11;;;;;;;11.45;10.95;;;;;;;;;;5042663;28;20029;-63
2023/07/05 07:23:37;;;;;;;11.55;11.05;;;;;;;;;;5045794;28;20430;-64
2023/07/05 07:26:06;;;;;;;11.50;11.00;;;;;;;;;;5044753;28;20021;-63
2023/07/05 07:28:31;;;;;;;11.73;11.23;;;;;;;;;;5043246;28;20021;-63
2023/07/05 07:30:57;;;;;;;12.00;11.50;;;;;;;;;;5039561;28;20346;-63
2023/07/05 07:33:23;;;;;;;12.18;11.68;;;;;;;;;;5045060;28;20032;-62
2023/07/05 07:35:49;;;;;;;12.15;11.65;;;;;;;;;;5042947;28;20565;-63
2023/07/05 07:38:14;;;;;;;11.80;11.30;;;;;;;;;;5044040;28;20024;-64
2023/07/05 07:40:40;;;;;;;11.75;11.25;;;;;;;;;;5041690;28;20107;-63
2023/07/05 07:43:06;;;;;;;11.90;11.40;;;;;;;;;;5042198;28;20025;-62
2023/07/05 07:45:31;;;;;;;12.23;11.73;;;;;;;;;;5039080;28;20884;-64
2023/07/05 07:47:56;;;;;;;12.53;11.93;;;;;;;;;;5041597;28;20107;-62
2023/07/05 07:50:21;;;;;;;11.73;11.23;;;;;;;;;;5045056;28;20032;-63
2023/07/05 07:52:47;;;;;;;12.00;11.50;;;;;;;;;;5043249;28;20104;-63
2023/07/05 07:55:12;;;;;;;11.90;11.40;;;;;;;;;;5043273;28;20048;-64
2023/07/05 07:57:37;;;;;;;12.50;11.90;;;;;;;;;;5045291;28;20025;-64
2023/07/05 08:00:05;;;;;;;12.53;11.93;;;;;;;;;;5041937;28;20051;-64
2023/07/05 08:02:31;;;;;;;13.32;12.73;;;;;;;;;;5038132;28;20037;-63
2023/07/05 08:04:56;;;;;;;12.77;12.17;;;;;;;;;;5040525;28;20609;-64
2023/07/05 08:07:21;;;;;;;12.50;11.90;;;;;;;;;;5042159;28;20025;-65
2023/07/05 08:09:50;;;;;;;12.73;12.13;;;;;;;;;;5043962;28;20020;-64
2023/07/05 08:12:15;;;;;;;12.30;11.73;;;;;;;;;;5042602;28;21981;-61
2023/07/05 08:14:40;;;;;;;12.35;11.75;;;;;;;;;;5045409;28;20024;-62
2023/07/05 08:17:05;;;;;;;13.17;12.57;;;;;;;;;;5044252;28;20029;-62
2023/07/05 08:19:31;;;;;;;12.73;12.13;;;;;;;;;;5024499;28;20344;-64
2023/07/05 08:21:57;;;;;;;13.13;12.52;;;;;;;;;;5041253;28;20087;-65
2023/07/05 08:24:22;;;;;;;13.07;12.48;;;;;;;;;;5038610;28;20028;-63
2023/07/05 08:26:48;;;;;;;12.33;11.77;;;;;;;;;;5041516;28;20108;-62
2023/07/05 08:29:13;;;;;;;12.73;12.13;;;;;;;;;;5040277;28;20506;-63
2023/07/05 08:31:39;;;;;;;12.95;12.35;;;;;;;;;;5039241;28;20021;-65
2023/07/05 08:34:04;;;;;;;13.02;12.43;;;;;;;;;;5038673;28;20207;-64
2023/07/05 08:36:36;;;;;;;13.32;12.73;;;;;;;;;;5037767;28;20076;-63
2023/07/05 08:39:03;;;;;;;13.13;12.52;;;;;;;;;;5038182;28;20131;-65
2023/07/05 08:41:28;;;;;;;12.98;12.38;;;;;;;;;;5038745;28;20112;-64
2023/07/05 08:44:06;;;;;;;13.30;12.70;;;;;;;;;;5037580;28;20036;-63
2023/07/05 08:46:32;;;;;;;13.55;12.95;;;;;;;;;;5038024;28;20566;-64
2023/07/05 08:49:06;;;;;;;12.48;11.88;;;;;;;;;;5039490;28;20031;-63
2023/07/05 08:51:32;;;;;;;12.50;11.90;;;;;;;;;;5043840;28;20021;-63
2023/07/05 08:54:00;;;;;;;13.05;12.45;;;;;;;;;;5042694;28;20027;-65
2023/07/05 08:56:35;;;;;;;12.65;12.05;;;;;;;;;;5039273;28;20071;-65
2023/07/05 08:59:11;;;;;;;13.18;12.57;;;;;;;;;;5040575;28;20115;-63
2023/07/05 09:01:39;;;;;;;11.88;11.38;;;;;;;;;;5037664;28;20128;-64
2023/07/05 09:04:08;;;;;;;12.50;11.90;;;;;;;;;;5040404;28;20052;-64
2023/07/05 09:06:49;;;;;;;12.98;12.38;;;;;;;;;;5038886;28;20060;-64
2023/07/05 09:09:15;;;;;;;12.85;12.25;;;;;;;;;;5044349;28;20025;-63
2023/07/05 09:11:59;;;;;;;13.27;12.68;;;;;;;;;;5037956;28;20484;-64
2023/07/05 09:14:30;;;;;;;12.88;12.27;;;;;;;;;;5035816;28;20041;-65
2023/07/05 09:16:55;;;;;;;12.82;12.23;;;;;;;;;;5039949;28;20036;-64
2023/07/05 09:19:20;;;;;;;12.77;12.17;;;;;;;;;;5046471;28;20017;-63
2023/07/05 09:21:48;;;;;;;12.90;12.30;;;;;;;;;;5046176;28;20028;-64
2023/07/05 09:24:23;;;;;;;12.77;12.18;;;;;;;;;;5046976;28;20705;-64
2023/07/05 09:26:56;;;;;;;12.57;11.98;;;;;;;;;;5045433;28;20053;-63
2023/07/05 09:29:29;;;;;;;12.60;12.00;;;;;;;;;;5039906;28;20021;-65
2023/07/05 09:31:54;;;;;;;11.90;11.40;;;;;;;;;;5025612;28;20017;-64
2023/07/05 09:34:28;;;;;;;12.82;12.23;;;;;;;;;;5042878;28;20040;-64
2023/07/05 09:36:53;;;;;;;12.75;12.15;;;;;;;;;;5046032;28;20032;-63
2023/07/05 09:39:23;;;;;;;12.32;11.73;;;;;;;;;;5046807;28;20435;-64
2023/07/05 09:41:49;;;;;;;12.50;11.90;;;;;;;;;;5044894;28;20064;-62
2023/07/05 09:44:16;;;;;;;12.73;12.13;;;;;;;;;;5045651;28;20017;-63
2023/07/05 09:46:43;;;;;;;12.57;11.98;;;;;;;;;;5043887;28;20064;-59
2023/07/05 09:49:12;;;;;;;13.35;12.75;;;;;;;;;;5046014;28;20044;-64
2023/07/05 09:51:41;;;;;;;12.77;12.18;;;;;;;;;;5037958;28;20020;-65
2023/07/05 09:54:11;;;;;;;12.65;12.05;;;;;;;;;;5045431;28;20048;-64
2023/07/05 09:56:54;;;;;;;12.73;12.13;;;;;;;;;;5044764;28;20068;-63
2023/07/05 09:59:23;;;;;;;12.23;11.65;;;;;;;;;;5048187;28;20047;-63
2023/07/05 10:01:50;;;;;;;13.20;12.60;;;;;;;;;;5043350;28;20041;-63
2023/07/05 10:04:15;;;;;;;12.98;12.38;;;;;;;;;;5040802;28;20057;-62
2023/07/05 10:06:43;;;;;;;13.50;12.90;;;;;;;;;;5040964;28;20049;-63
2023/07/05 10:09:21;;;;;;;12.70;12.10;;;;;;;;;;5038717;28;20028;-63
2023/07/05 10:11:48;;;;;;;12.57;11.98;;;;;;;;;;5039925;28;20663;-63
2023/07/05 10:14:15;;;;;;;12.38;11.77;;;;;;;;;;5043884;28;20024;-63
2023/07/05 10:16:45;;;;;;;12.30;11.73;;;;;;;;;;5039081;28;20032;-65
2023/07/05 10:19:20;;;;;;;12.77;12.18;;;;;;;;;;5040799;28;20622;-64
2023/07/05 10:21:52;;;;;;;12.38;11.77;;;;;;;;;;5043025;28;20095;-64
2023/07/05 10:24:19;;;;;;;12.65;12.05;;;;;;;;;;5040031;28;20128;-64
2023/07/05 10:26:47;;;;;;;12.32;11.73;;;;;;;;;;5039898;28;20027;-63
2023/07/05 10:29:18;;;;;;;12.00;11.50;;;;;;;;;;5041505;28;20484;-62
2023/07/05 10:31:51;;;;;;;12.65;12.05;;;;;;;;;;5041963;28;20017;-62
2023/07/05 10:34:19;;;;;;;11.52;11.02;;;;;;;;;;5042964;28;20028;-66
2023/07/05 10:36:45;;;;;;;11.50;11.00;;;;;;;;;;5044797;28;20416;-64
2023/07/05 10:39:10;;;;;;;12.40;11.80;;;;;;;;;;5042745;28;20218;-63
2023/07/05 10:41:36;;;;;;;11.75;11.25;;;;;;;;;;5046747;28;20021;-63
2023/07/05 10:44:04;;;;;;;13.00;12.40;;;;;;;;;;5044832;28;20065;-63
2023/07/05 10:46:30;;;;;;;12.40;11.80;;;;;;;;;;5038161;28;20044;-64
2023/07/05 10:48:56;;;;;;;12.90;12.30;;;;;;;;;;5042585;28;20021;-64
2023/07/05 10:51:26;;;;;;;13.13;12.52;;;;;;;;;;5041953;28;20160;-63
2023/07/05 10:54:00;;;;;;;13.00;12.40;;;;;;;;;;5039490;28;20108;-64
2023/07/05 10:56:29;;;;;;;12.60;12.00;;;;;;;;;;5039648;28;20044;-63
2023/07/05 10:59:12;;;;;;;13.57;12.98;;;;;;;;;;5043095;28;20060;-65
2023/07/05 11:01:40;;;;;;;12.65;12.05;;;;;;;;;;5038053;28;20116;-63
2023/07/05 11:04:05;;;;;;;12.32;11.73;;;;;;;;;;5039705;28;20127;-63
2023/07/05 11:06:33;;;;;;;12.63;12.02;;;;;;;;;;5040530;28;20099;-64
2023/07/05 11:08:59;;;;;;;12.43;11.82;;;;;;;;;;5043505;28;20884;-64
2023/07/05 11:11:27;;;;;;;13.20;12.60;;;;;;;;;;5044394;28;20025;-64
2023/07/05 11:13:53;;;;;;;12.32;11.73;;;;;;;;;;5041107;28;20024;-62
2023/07/05 11:16:21;;;;;;;12.23;11.65;;;;;;;;;;5037847;28;20404;-65
2023/07/05 11:18:47;;;;;;;12.63;12.02;;;;;;;;;;5045175;28;20029;-64
2023/07/05 11:21:31;;;;;;;13.20;12.60;;;;;;;;;;5041448;28;20051;-63
2023/07/05 11:23:57;;;;;;;13.63;13.02;;;;;;;;;;5042496;28;20103;-65
2023/07/05 11:26:34;;;;;;;12.27;11.70;;;;;;;;;;5045492;28;20120;-63
2023/07/05 11:29:00;;;;;;;11.75;11.25;;;;;;;;;;5048458;28;20017;-63
2023/07/05 11:31:28;;;;;;;12.63;12.02;;;;;;;;;;5044108;28;20031;-65
2023/07/05 11:34:12;;;;;;;12.40;11.80;;;;;;;;;;5044326;28;20047;-65
2023/07/05 11:36:39;;;;;;;12.00;11.50;;;;;;;;;;5040599;28;20017;-65
2023/07/05 11:39:06;;;;;;;11.38;10.88;;;;;;;;;;5044661;28;20567;-65
2023/07/05 11:41:32;;;;;;;11.63;11.13;;;;;;;;;;5050590;28;20031;-64
2023/07/05 11:44:01;;;;;;;12.02;11.52;;;;;;;;;;5047549;28;20152;-64
2023/07/05 11:46:35;;;;;;;12.30;11.70;;;;;;;;;;5030268;28;20025;-65
2023/07/05 11:49:22;;;;;;;12.10;11.60;;;;;;;;;;5043919;28;20039;-64
2023/07/05 11:51:53;;;;;;;11.38;10.88;;;;;;;;;;5035363;28;20040;-65
2023/07/05 11:54:20;;;;;;;11.63;11.13;;;;;;;;;;5047878;28;20106;-65
2023/07/05 11:56:47;;;;;;;11.82;11.32;;;;;;;;;;5042964;28;20025;-65
2023/07/05 11:59:14;;;;;;;11.93;11.43;;;;;;;;;;5030347;28;20056;-65
2023/07/05 12:01:41;;;;;;;12.35;11.77;;;;;;;;;;5043700;28;20041;-65
2023/07/05 12:04:11;;;;;;;11.90;11.40;;;;;;;;;;5042293;28;20028;-64
2023/07/05 12:06:36;;;;;;;12.30;11.70;;;;;;;;;;5042959;28;20025;-65
2023/07/05 12:09:03;;;;;;;12.05;11.55;;;;;;;;;;5044247;28;20100;-66
2023/07/05 12:11:37;;;;;;;12.73;12.13;;;;;;;;;;5044282;28;20025;-64
2023/07/05 12:14:08;;;;;;;12.05;11.55;;;;;;;;;;5043952;28;20029;-64
2023/07/05 12:16:34;;;;;;;11.85;11.35;;;;;;;;;;5040976;28;20035;-65
2023/07/05 12:19:01;;;;;;;11.90;11.40;;;;;;;;;;5044863;28;20388;-65
2023/07/05 12:21:31;;;;;;;12.20;11.63;;;;;;;;;;5043298;28;20107;-65
2023/07/05 12:23:56;;;;;;;14.85;14.15;;;;;;;;;;5034488;28;20029;-64
2023/07/05 12:26:24;;;;;;;12.93;12.32;;;;;;;;;;5036151;28;20102;-66
2023/07/05 12:28:51;;;;;;;12.48;11.88;;;;;;;;;;5036933;28;20574;-66
2023/07/05 12:31:19;;;;;;;12.60;12.00;;;;;;;;;;5038877;28;20045;-65
2023/07/05 12:33:50;;;;;;;12.43;11.82;;;;;;;;;;5040137;28;20035;-64
2023/07/05 12:36:17;;;;;;;12.43;11.82;;;;;;;;;;5040147;28;20052;-65
2023/07/05 12:38:45;;;;;;;13.23;12.63;;;;;;;;;;5042308;28;20104;-65
2023/07/05 12:41:19;;;;;;;12.45;11.85;;;;;;;;;;5042662;28;20102;-65
2023/07/05 12:43:45;;;;;;;12.80;12.20;;;;;;;;;;5042869;28;20029;-64
2023/07/05 12:46:15;;;;;;;13.50;12.90;;;;;;;;;;5039925;28;20046;-64
2023/07/05 12:48:41;;;;;;;12.57;11.98;;;;;;;;;;5022918;28;20434;-68
2023/07/05 12:51:09;;;;;;;13.63;13.02;;;;;;;;;;5039155;28;20029;-69
2023/07/05 12:53:34;;;;;;;12.10;11.60;;;;;;;;;;5044802;28;20031;-68
2023/07/05 12:56:13;;;;;;;13.52;12.93;;;;;;;;;;5035997;28;20029;-68
2023/07/05 12:58:50;;;;;;;12.63;12.02;;;;;;;;;;5042839;28;20021;-68
2023/07/05 13:01:19;;;;;;;13.25;12.65;;;;;;;;;;5041348;28;20051;-69
2023/07/05 13:03:47;;;;;;;12.82;12.23;;;;;;;;;;5043664;28;20099;-69
2023/07/05 13:06:12;;;;;;;12.57;11.98;;;;;;;;;;5041438;28;20021;-69
2023/07/05 13:08:48;;;;;;;12.25;11.68;;;;;;;;;;5039871;28;20021;-69
2023/07/05 13:11:18;;;;;;;12.95;12.35;;;;;;;;;;5035825;28;20555;-65
2023/07/05 13:13:43;;;;;;;13.05;12.45;;;;;;;;;;5034861;28;20091;-65
2023/07/05 13:16:27;;;;;;;13.40;12.80;;;;;;;;;;5032901;28;20026;-64
2023/07/05 13:18:58;;;;;;;13.02;12.43;;;;;;;;;;5037085;28;20020;-65
2023/07/05 13:21:23;;;;;;;13.27;12.68;;;;;;;;;;5031000;28;20107;-64
2023/07/05 13:23:49;;;;;;;12.85;12.25;;;;;;;;;;5042175;28;20124;-65
2023/07/05 13:26:30;;;;;;;12.07;11.55;;;;;;;;;;5025375;28;20448;-64
2023/07/05 13:28:55;;;;;;;12.40;11.80;;;;;;;;;;5042711;28;20025;-65
2023/07/05 13:31:21;;;;;;;13.18;12.57;;;;;;;;;;5043053;28;20472;-67
2023/07/05 13:33:47;;;;;;;12.93;12.32;;;;;;;;;;5042639;28;20470;-64
2023/07/05 13:36:12;;;;;;;12.20;11.63;;;;;;;;;;5042637;28;20055;-66
2023/07/05 13:38:38;;;;;;;12.60;12.00;;;;;;;;;;5041685;28;20017;-64
2023/07/05 13:41:04;;;;;;;12.50;11.90;;;;;;;;;;5043898;28;20029;-67
2023/07/05 13:43:30;;;;;;;13.20;12.60;;;;;;;;;;5042177;28;20033;-64
2023/07/05 13:45:57;;;;;;;12.80;12.20;;;;;;;;;;5043116;28;20104;-64
2023/07/05 13:48:22;;;;;;;13.30;12.70;;;;;;;;;;5041466;28;20504;-64
2023/07/05 13:50:48;;;;;;;12.60;12.00;;;;;;;;;;5040099;28;20071;-67
2023/07/05 13:53:17;;;;;;;12.98;12.38;;;;;;;;;;5043699;28;20055;-62
2023/07/05 13:55:43;;;;;;;12.35;11.75;;;;;;;;;;5041710;28;20028;-64
2023/07/05 13:58:10;;;;;;;12.50;11.90;;;;;;;;;;5040692;28;20033;-67
2023/07/05 14:00:36;;;;;;;12.38;11.77;;;;;;;;;;5042694;28;20237;-66
2023/07/05 14:03:02;;;;;;;12.52;11.93;;;;;;;;;;5039079;28;20381;-63
2023/07/05 14:05:28;;;;;;;12.73;12.13;;;;;;;;;;5045970;28;20032;-65
2023/07/05 14:07:57;;;;;;;13.13;12.52;;;;;;;;;;5042259;28;20104;-64
2023/07/05 14:10:24;;;;;;;12.60;12.00;;;;;;;;;;5040814;28;20025;-64
2023/07/05 14:12:49;;;;;;;12.65;12.05;;;;;;;;;;5045473;28;20033;-63
2023/07/05 14:15:30;;;;;;;12.60;12.00;;;;;;;;;;5045355;28;20021;-64
2023/07/05 14:17:55;;;;;;;12.75;12.15;;;;;;;;;;5044297;28;20102;-63